sensor_id;sensor_type;location;lat;lon;timestamp;P1;durP1;ratioP1;P2;durP2;ratioP2
14613;SDS011;7393;51.446;6.800;2024-03-23T00:54:44;15.13;;;2.93;;
14613;SDS011;7393;51.446;6.800;2024-03-23T00:57:11;11.87;;;2.83;;
14613;SDS011;7393;51.446;6.800;2024-03-23T00:59:36;8.37;;;2.60;;
14613;SDS011;7393;51.446;6.800;2024-03-23T01:02:04;9.70;;;2.00;;
14613;SDS011;7393;51.446;6.800;2024-03-23T01:04:29;11.10;;;2.23;;
14613;SDS011;7393;51.446;6.800;2024-03-23T01:06:56;7.70;;;2.00;;
14613;SDS011;7393;51.446;6.800;2024-03-23T01:09:23;9.40;;;2.00;;
14613;SDS011;7393;51.446;6.800;2024-03-23T01:11:50;7.17;;;2.27;;
14613;SDS011;7393;51.446;6.800;2024-03-23T01:14:16;6.60;;;2.17;;
14613;SDS011;7393;51.446;6.800;2024-03-23T01:16:42;7.13;;;2.13;;
14613;SDS011;7393;51.446;6.800;2024-03-23T01:19:08;7.33;;;1.87;;
14613;SDS011;7393;51.446;6.800;2024-03-23T01:21:35;9.23;;;2.10;;
14613;SDS011;7393;51.446;6.800;2024-03-23T01:24:01;6.40;;;1.77;;
14613;SDS011;7393;51.446;6.800;2024-03-23T01:26:29;5.20;;;1.80;;
14613;SDS011;7393;51.446;6.800;2024-03-23T01:28:55;6.03;;;2.27;;
14613;SDS011;7393;51.446;6.800;2024-03-23T01:31:22;5.27;;;1.73;;
14613;SDS011;7393;51.446;6.800;2024-03-23T01:33:47;6.43;;;2.10;;
14613;SDS011;7393;51.446;6.800;2024-03-23T01:36:14;6.30;;;1.97;;
14613;SDS011;7393;51.446;6.800;2024-03-23T01:38:40;8.17;;;2.33;;
14613;SDS011;7393;51.446;6.800;2024-03-23T01:41:07;6.67;;;2.10;;
14613;SDS011;7393;51.446;6.800;2024-03-23T01:43:34;8.03;;;2.10;;
14613;SDS011;7393;51.446;6.800;2024-03-23T01:46:00;5.27;;;2.10;;
14613;SDS011;7393;51.446;6.800;2024-03-23T01:48:26;5.70;;;2.30;;
14613;SDS011;7393;51.446;6.800;2024-03-23T01:50:53;6.47;;;2.40;;
14613;SDS011;7393;51.446;6.800;2024-03-23T01:53:19;9.70;;;2.47;;
14613;SDS011;7393;51.446;6.800;2024-03-23T01:55:48;8.50;;;2.33;;
14613;SDS011;7393;51.446;6.800;2024-03-23T01:58:15;7.07;;;2.80;;
14613;SDS011;7393;51.446;6.800;2024-03-23T02:00:43;9.17;;;3.03;;
14613;SDS011;7393;51.446;6.800;2024-03-23T02:03:22;6.27;;;2.60;;
14613;SDS011;7393;51.446;6.800;2024-03-23T02:05:49;8.40;;;2.43;;
14613;SDS011;7393;51.446;6.800;2024-03-23T02:08:15;6.27;;;2.37;;
14613;SDS011;7393;51.446;6.800;2024-03-23T02:10:43;10.43;;;2.67;;
14613;SDS011;7393;51.446;6.800;2024-03-23T02:13:09;7.27;;;2.60;;
14613;SDS011;7393;51.446;6.800;2024-03-23T02:15:36;7.37;;;2.60;;
14613;SDS011;7393;51.446;6.800;2024-03-23T02:18:06;10.10;;;3.47;;
14613;SDS011;7393;51.446;6.800;2024-03-23T02:20:33;8.00;;;2.50;;
14613;SDS011;7393;51.446;6.800;2024-03-23T02:23:01;7.97;;;2.90;;
14613;SDS011;7393;51.446;6.800;2024-03-23T02:25:28;9.57;;;2.87;;
14613;SDS011;7393;51.446;6.800;2024-03-23T02:27:53;8.13;;;3.03;;
14613;SDS011;7393;51.446;6.800;2024-03-23T02:30:20;6.90;;;2.87;;
14613;SDS011;7393;51.446;6.800;2024-03-23T02:32:46;6.43;;;2.80;;
14613;SDS011;7393;51.446;6.800;2024-03-23T02:35:13;11.20;;;3.17;;
14613;SDS011;7393;51.446;6.800;2024-03-23T02:37:39;11.53;;;3.60;;
14613;SDS011;7393;51.446;6.800;2024-03-23T02:40:07;7.83;;;2.87;;
14613;SDS011;7393;51.446;6.800;2024-03-23T02:42:34;9.10;;;3.50;;
14613;SDS011;7393;51.446;6.800;2024-03-23T02:45:00;6.23;;;3.03;;
14613;SDS011;7393;51.446;6.800;2024-03-23T02:47:29;8.17;;;2.97;;
14613;SDS011;7393;51.446;6.800;2024-03-23T02:49:56;8.03;;;3.10;;
14613;SDS011;7393;51.446;6.800;2024-03-23T02:52:22;7.13;;;3.20;;
14613;SDS011;7393;51.446;6.800;2024-03-23T02:54:49;9.20;;;2.93;;
14613;SDS011;7393;51.446;6.800;2024-03-23T02:57:16;15.10;;;3.40;;
14613;SDS011;7393;51.446;6.800;2024-03-23T02:59:43;7.77;;;2.80;;
14613;SDS011;7393;51.446;6.800;2024-03-23T03:02:09;8.90;;;2.97;;
14613;SDS011;7393;51.446;6.800;2024-03-23T03:04:36;9.70;;;3.27;;
14613;SDS011;7393;51.446;6.800;2024-03-23T03:07:01;9.43;;;3.30;;
14613;SDS011;7393;51.446;6.800;2024-03-23T03:09:29;9.83;;;3.07;;
14613;SDS011;7393;51.446;6.800;2024-03-23T03:11:55;11.10;;;2.63;;
14613;SDS011;7393;51.446;6.800;2024-03-23T03:14:23;9.97;;;2.80;;
14613;SDS011;7393;51.446;6.800;2024-03-23T03:16:49;9.43;;;2.37;;
14613;SDS011;7393;51.446;6.800;2024-03-23T03:19:16;8.23;;;2.40;;
14613;SDS011;7393;51.446;6.800;2024-03-23T03:21:41;10.60;;;2.33;;
14613;SDS011;7393;51.446;6.800;2024-03-23T03:24:08;7.97;;;2.30;;
14613;SDS011;7393;51.446;6.800;2024-03-23T03:26:34;6.43;;;1.97;;
14613;SDS011;7393;51.446;6.800;2024-03-23T03:29:02;8.93;;;2.10;;
14613;SDS011;7393;51.446;6.800;2024-03-23T03:31:29;9.17;;;2.00;;
14613;SDS011;7393;51.446;6.800;2024-03-23T03:33:56;8.40;;;2.03;;
14613;SDS011;7393;51.446;6.800;2024-03-23T03:36:22;9.70;;;2.23;;
14613;SDS011;7393;51.446;6.800;2024-03-23T03:38:49;8.43;;;2.33;;
14613;SDS011;7393;51.446;6.800;2024-03-23T03:41:15;7.93;;;2.50;;
14613;SDS011;7393;51.446;6.800;2024-03-23T03:43:41;5.90;;;2.40;;
14613;SDS011;7393;51.446;6.800;2024-03-23T03:46:07;10.63;;;2.30;;
14613;SDS011;7393;51.446;6.800;2024-03-23T03:48:36;7.73;;;2.23;;
14613;SDS011;7393;51.446;6.800;2024-03-23T03:51:02;10.53;;;2.47;;
14613;SDS011;7393;51.446;6.800;2024-03-23T03:53:29;4.30;;;1.90;;
14613;SDS011;7393;51.446;6.800;2024-03-23T03:55:55;10.30;;;2.47;;
14613;SDS011;7393;51.446;6.800;2024-03-23T03:58:22;6.83;;;1.80;;
14613;SDS011;7393;51.446;6.800;2024-03-23T04:00:48;11.83;;;2.13;;
14613;SDS011;7393;51.446;6.800;2024-03-23T04:03:14;8.00;;;2.00;;
14613;SDS011;7393;51.446;6.800;2024-03-23T04:05:42;7.43;;;2.07;;
14613;SDS011;7393;51.446;6.800;2024-03-23T04:08:08;7.53;;;2.43;;
14613;SDS011;7393;51.446;6.800;2024-03-23T04:10:34;9.43;;;2.63;;
14613;SDS011;7393;51.446;6.800;2024-03-23T04:13:01;8.47;;;2.70;;
14613;SDS011;7393;51.446;6.800;2024-03-23T04:15:29;7.97;;;2.50;;
14613;SDS011;7393;51.446;6.800;2024-03-23T04:17:56;10.13;;;2.37;;
14613;SDS011;7393;51.446;6.800;2024-03-23T04:20:22;7.80;;;2.43;;
14613;SDS011;7393;51.446;6.800;2024-03-23T04:22:50;7.20;;;2.10;;
14613;SDS011;7393;51.446;6.800;2024-03-23T04:25:16;7.87;;;2.13;;
14613;SDS011;7393;51.446;6.800;2024-03-23T04:27:44;8.50;;;2.70;;
14613;SDS011;7393;51.446;6.800;2024-03-23T04:30:11;10.97;;;2.40;;
14613;SDS011;7393;51.446;6.800;2024-03-23T04:32:39;10.53;;;2.93;;
14613;SDS011;7393;51.446;6.800;2024-03-23T04:35:05;12.13;;;3.20;;
14613;SDS011;7393;51.446;6.800;2024-03-23T04:37:34;8.47;;;2.67;;
14613;SDS011;7393;51.446;6.800;2024-03-23T04:40:02;7.33;;;2.77;;
14613;SDS011;7393;51.446;6.800;2024-03-23T04:42:30;6.30;;;2.80;;
14613;SDS011;7393;51.446;6.800;2024-03-23T04:44:57;12.60;;;3.00;;
14613;SDS011;7393;51.446;6.800;2024-03-23T04:47:24;14.37;;;3.20;;
14613;SDS011;7393;51.446;6.800;2024-03-23T04:49:51;7.63;;;2.90;;
14613;SDS011;7393;51.446;6.800;2024-03-23T04:52:18;9.73;;;3.03;;
14613;SDS011;7393;51.446;6.800;2024-03-23T04:54:45;11.07;;;3.90;;
14613;SDS011;7393;51.446;6.800;2024-03-23T04:57:13;9.97;;;3.57;;
14613;SDS011;7393;51.446;6.800;2024-03-23T04:59:41;10.67;;;3.80;;
14613;SDS011;7393;51.446;6.800;2024-03-23T05:02:07;10.07;;;3.70;;
14613;SDS011;7393;51.446;6.800;2024-03-23T05:04:35;10.50;;;4.47;;
14613;SDS011;7393;51.446;6.800;2024-03-23T05:07:02;14.33;;;4.40;;
14613;SDS011;7393;51.446;6.800;2024-03-23T05:09:29;11.87;;;4.07;;
14613;SDS011;7393;51.446;6.800;2024-03-23T05:11:55;12.67;;;4.30;;
14613;SDS011;7393;51.446;6.800;2024-03-23T05:14:23;14.07;;;5.00;;
14613;SDS011;7393;51.446;6.800;2024-03-23T05:16:50;14.67;;;5.10;;
14613;SDS011;7393;51.446;6.800;2024-03-23T05:19:17;14.87;;;4.63;;
14613;SDS011;7393;51.446;6.800;2024-03-23T05:21:43;14.93;;;5.67;;
14613;SDS011;7393;51.446;6.800;2024-03-23T05:24:09;11.93;;;3.90;;
14613;SDS011;7393;51.446;6.800;2024-03-23T05:26:36;10.00;;;4.70;;
14613;SDS011;7393;51.446;6.800;2024-03-23T05:29:03;14.00;;;4.33;;
14613;SDS011;7393;51.446;6.800;2024-03-23T05:31:33;12.03;;;4.40;;
14613;SDS011;7393;51.446;6.800;2024-03-23T05:34:00;14.50;;;4.17;;
14613;SDS011;7393;51.446;6.800;2024-03-23T05:36:25;11.23;;;4.40;;
14613;SDS011;7393;51.446;6.800;2024-03-23T05:38:52;12.93;;;4.50;;
14613;SDS011;7393;51.446;6.800;2024-03-23T05:41:18;16.07;;;4.70;;
14613;SDS011;7393;51.446;6.800;2024-03-23T05:43:45;13.83;;;4.63;;
14613;SDS011;7393;51.446;6.800;2024-03-23T05:46:10;9.47;;;4.93;;
14613;SDS011;7393;51.446;6.800;2024-03-23T05:48:39;18.70;;;5.63;;
14613;SDS011;7393;51.446;6.800;2024-03-23T05:51:04;12.00;;;5.63;;
14613;SDS011;7393;51.446;6.800;2024-03-23T05:53:31;13.87;;;5.10;;
14613;SDS011;7393;51.446;6.800;2024-03-23T05:56:01;12.53;;;5.33;;
14613;SDS011;7393;51.446;6.800;2024-03-23T05:58:30;11.57;;;4.50;;
14613;SDS011;7393;51.446;6.800;2024-03-23T06:00:59;12.20;;;4.90;;
14613;SDS011;7393;51.446;6.800;2024-03-23T06:03:26;18.30;;;5.60;;
14613;SDS011;7393;51.446;6.800;2024-03-23T06:05:54;11.43;;;4.73;;
14613;SDS011;7393;51.446;6.800;2024-03-23T06:08:21;11.00;;;4.30;;
14613;SDS011;7393;51.446;6.800;2024-03-23T06:10:47;13.33;;;4.90;;
14613;SDS011;7393;51.446;6.800;2024-03-23T06:13:15;12.77;;;4.97;;
14613;SDS011;7393;51.446;6.800;2024-03-23T06:15:42;12.50;;;5.53;;
14613;SDS011;7393;51.446;6.800;2024-03-23T06:18:08;11.97;;;5.00;;
14613;SDS011;7393;51.446;6.800;2024-03-23T06:20:34;12.93;;;5.10;;
14613;SDS011;7393;51.446;6.800;2024-03-23T06:23:03;16.77;;;5.90;;
14613;SDS011;7393;51.446;6.800;2024-03-23T06:25:29;14.67;;;4.77;;
14613;SDS011;7393;51.446;6.800;2024-03-23T06:27:56;12.80;;;5.83;;
14613;SDS011;7393;51.446;6.800;2024-03-23T06:30:23;14.50;;;5.13;;
14613;SDS011;7393;51.446;6.800;2024-03-23T06:32:51;12.20;;;5.13;;
14613;SDS011;7393;51.446;6.800;2024-03-23T06:35:18;14.93;;;5.63;;
14613;SDS011;7393;51.446;6.800;2024-03-23T06:37:45;14.43;;;5.10;;
14613;SDS011;7393;51.446;6.800;2024-03-23T06:40:12;15.67;;;6.20;;
14613;SDS011;7393;51.446;6.800;2024-03-23T06:42:39;15.10;;;5.87;;
14613;SDS011;7393;51.446;6.800;2024-03-23T06:45:05;18.33;;;6.53;;
14613;SDS011;7393;51.446;6.800;2024-03-23T06:47:33;13.43;;;6.40;;
14613;SDS011;7393;51.446;6.800;2024-03-23T06:49:59;17.73;;;6.77;;
14613;SDS011;7393;51.446;6.800;2024-03-23T06:52:27;15.50;;;6.63;;
14613;SDS011;7393;51.446;6.800;2024-03-23T06:54:53;14.77;;;6.10;;
14613;SDS011;7393;51.446;6.800;2024-03-23T06:57:21;19.20;;;6.47;;
14613;SDS011;7393;51.446;6.800;2024-03-23T06:59:47;17.60;;;7.33;;
14613;SDS011;7393;51.446;6.800;2024-03-23T07:02:14;16.50;;;7.30;;
14613;SDS011;7393;51.446;6.800;2024-03-23T07:04:41;17.00;;;6.97;;
14613;SDS011;7393;51.446;6.800;2024-03-23T07:07:08;18.73;;;7.07;;
14613;SDS011;7393;51.446;6.800;2024-03-23T07:09:33;16.67;;;7.47;;
14613;SDS011;7393;51.446;6.800;2024-03-23T07:12:00;19.60;;;7.80;;
14613;SDS011;7393;51.446;6.800;2024-03-23T07:14:27;14.20;;;6.70;;
14613;SDS011;7393;51.446;6.800;2024-03-23T07:16:54;13.17;;;6.47;;
14613;SDS011;7393;51.446;6.800;2024-03-23T07:19:20;18.13;;;7.17;;
14613;SDS011;7393;51.446;6.800;2024-03-23T07:21:46;14.37;;;6.93;;
14613;SDS011;7393;51.446;6.800;2024-03-23T07:24:13;15.57;;;6.30;;
14613;SDS011;7393;51.446;6.800;2024-03-23T07:26:40;16.20;;;6.67;;
14613;SDS011;7393;51.446;6.800;2024-03-23T07:29:06;20.00;;;6.80;;
14613;SDS011;7393;51.446;6.800;2024-03-23T07:31:34;16.53;;;6.80;;
14613;SDS011;7393;51.446;6.800;2024-03-23T07:34:00;14.90;;;6.10;;
14613;SDS011;7393;51.446;6.800;2024-03-23T07:36:27;17.03;;;6.50;;
14613;SDS011;7393;51.446;6.800;2024-03-23T07:38:52;16.43;;;6.17;;
14613;SDS011;7393;51.446;6.800;2024-03-23T07:41:19;19.60;;;6.37;;
14613;SDS011;7393;51.446;6.800;2024-03-23T07:43:46;21.70;;;6.83;;
14613;SDS011;7393;51.446;6.800;2024-03-23T07:46:14;13.10;;;5.70;;
14613;SDS011;7393;51.446;6.800;2024-03-23T07:48:42;15.27;;;6.00;;
14613;SDS011;7393;51.446;6.800;2024-03-23T07:51:10;15.23;;;5.67;;
14613;SDS011;7393;51.446;6.800;2024-03-23T07:53:36;15.90;;;5.27;;
14613;SDS011;7393;51.446;6.800;2024-03-23T07:56:05;14.63;;;5.80;;
14613;SDS011;7393;51.446;6.800;2024-03-23T07:58:31;19.20;;;5.30;;
14613;SDS011;7393;51.446;6.800;2024-03-23T08:01:03;14.57;;;5.43;;
14613;SDS011;7393;51.446;6.800;2024-03-23T08:03:30;13.97;;;5.53;;
14613;SDS011;7393;51.446;6.800;2024-03-23T08:05:58;13.93;;;4.77;;
14613;SDS011;7393;51.446;6.800;2024-03-23T08:08:32;14.07;;;4.60;;
14613;SDS011;7393;51.446;6.800;2024-03-23T08:10:59;10.93;;;4.40;;
14613;SDS011;7393;51.446;6.800;2024-03-23T08:13:24;16.43;;;4.47;;
14613;SDS011;7393;51.446;6.800;2024-03-23T08:15:51;10.33;;;4.27;;
14613;SDS011;7393;51.446;6.800;2024-03-23T08:18:18;10.37;;;4.13;;
14613;SDS011;7393;51.446;6.800;2024-03-23T08:20:44;16.13;;;4.60;;
14613;SDS011;7393;51.446;6.800;2024-03-23T08:23:12;13.87;;;4.43;;
14613;SDS011;7393;51.446;6.800;2024-03-23T08:25:37;10.00;;;3.90;;
14613;SDS011;7393;51.446;6.800;2024-03-23T08:28:04;12.90;;;3.87;;
14613;SDS011;7393;51.446;6.800;2024-03-23T08:30:34;9.80;;;3.97;;
14613;SDS011;7393;51.446;6.800;2024-03-23T08:33:01;12.10;;;4.07;;
14613;SDS011;7393;51.446;6.800;2024-03-23T08:35:27;15.43;;;3.97;;
14613;SDS011;7393;51.446;6.800;2024-03-23T08:37:54;10.07;;;4.47;;
14613;SDS011;7393;51.446;6.800;2024-03-23T08:40:21;11.50;;;4.33;;
14613;SDS011;7393;51.446;6.800;2024-03-23T08:42:48;12.00;;;3.50;;
14613;SDS011;7393;51.446;6.800;2024-03-23T08:45:14;6.57;;;2.50;;
14613;SDS011;7393;51.446;6.800;2024-03-23T08:47:40;5.13;;;2.10;;
14613;SDS011;7393;51.446;6.800;2024-03-23T08:50:06;7.10;;;2.43;;
14613;SDS011;7393;51.446;6.800;2024-03-23T08:52:34;6.63;;;2.30;;
14613;SDS011;7393;51.446;6.800;2024-03-23T08:54:59;7.30;;;2.03;;
14613;SDS011;7393;51.446;6.800;2024-03-23T08:57:28;6.67;;;1.90;;
14613;SDS011;7393;51.446;6.800;2024-03-23T08:59:53;7.77;;;2.53;;
14613;SDS011;7393;51.446;6.800;2024-03-23T09:02:20;5.53;;;2.17;;
14613;SDS011;7393;51.446;6.800;2024-03-23T09:04:46;4.80;;;2.00;;
14613;SDS011;7393;51.446;6.800;2024-03-23T09:07:13;6.57;;;2.20;;
14613;SDS011;7393;51.446;6.800;2024-03-23T09:09:38;9.90;;;2.70;;
14613;SDS011;7393;51.446;6.800;2024-03-23T09:12:05;7.67;;;3.50;;
14613;SDS011;7393;51.446;6.800;2024-03-23T09:14:33;6.10;;;3.00;;
14613;SDS011;7393;51.446;6.800;2024-03-23T09:17:00;5.33;;;2.90;;
14613;SDS011;7393;51.446;6.800;2024-03-23T09:19:26;13.53;;;3.83;;
14613;SDS011;7393;51.446;6.800;2024-03-23T09:21:54;10.03;;;3.97;;
14613;SDS011;7393;51.446;6.800;2024-03-23T09:24:20;12.73;;;3.60;;
14613;SDS011;7393;51.446;6.800;2024-03-23T09:26:47;10.77;;;3.67;;
14613;SDS011;7393;51.446;6.800;2024-03-23T09:29:12;7.67;;;3.90;;
14613;SDS011;7393;51.446;6.800;2024-03-23T09:31:41;7.63;;;3.57;;
14613;SDS011;7393;51.446;6.800;2024-03-23T09:34:06;8.13;;;3.57;;
14613;SDS011;7393;51.446;6.800;2024-03-23T09:36:33;9.33;;;3.70;;
14613;SDS011;7393;51.446;6.800;2024-03-23T09:38:59;11.43;;;4.00;;
14613;SDS011;7393;51.446;6.800;2024-03-23T09:41:26;11.20;;;3.87;;
14613;SDS011;7393;51.446;6.800;2024-03-23T09:43:52;9.17;;;3.50;;
14613;SDS011;7393;51.446;6.800;2024-03-23T09:46:19;11.83;;;3.67;;
14613;SDS011;7393;51.446;6.800;2024-03-23T09:48:46;11.57;;;3.53;;
14613;SDS011;7393;51.446;6.800;2024-03-23T09:51:13;10.97;;;3.10;;
14613;SDS011;7393;51.446;6.800;2024-03-23T09:53:39;8.93;;;2.70;;
14613;SDS011;7393;51.446;6.800;2024-03-23T09:56:07;6.87;;;2.53;;
14613;SDS011;7393;51.446;6.800;2024-03-23T09:58:33;7.20;;;2.40;;
14613;SDS011;7393;51.446;6.800;2024-03-23T10:01:01;8.80;;;2.40;;
14613;SDS011;7393;51.446;6.800;2024-03-23T10:03:28;9.20;;;2.17;;
14613;SDS011;7393;51.446;6.800;2024-03-23T10:06:01;4.90;;;1.67;;
14613;SDS011;7393;51.446;6.800;2024-03-23T10:08:28;8.70;;;2.07;;
14613;SDS011;7393;51.446;6.800;2024-03-23T10:10:55;7.33;;;1.87;;
14613;SDS011;7393;51.446;6.800;2024-03-23T10:13:24;9.80;;;2.53;;
14613;SDS011;7393;51.446;6.800;2024-03-23T10:15:55;8.40;;;1.90;;
14613;SDS011;7393;51.446;6.800;2024-03-23T10:18:22;8.40;;;2.10;;
14613;SDS011;7393;51.446;6.800;2024-03-23T10:21:06;7.87;;;2.07;;
14613;SDS011;7393;51.446;6.800;2024-03-23T10:23:36;4.17;;;1.70;;
14613;SDS011;7393;51.446;6.800;2024-03-23T10:26:13;6.73;;;1.87;;
14613;SDS011;7393;51.446;6.800;2024-03-23T10:28:51;9.83;;;2.40;;
14613;SDS011;7393;51.446;6.800;2024-03-23T10:31:18;8.33;;;2.50;;
14613;SDS011;7393;51.446;6.800;2024-03-23T10:33:45;8.17;;;1.97;;
14613;SDS011;7393;51.446;6.800;2024-03-23T10:36:14;8.67;;;2.67;;
14613;SDS011;7393;51.446;6.800;2024-03-23T10:38:40;6.30;;;1.67;;
14613;SDS011;7393;51.446;6.800;2024-03-23T10:41:07;5.53;;;1.20;;
14613;SDS011;7393;51.446;6.800;2024-03-23T10:43:34;5.43;;;1.30;;
14613;SDS011;7393;51.446;6.800;2024-03-23T10:46:03;2.83;;;0.93;;
14613;SDS011;7393;51.446;6.800;2024-03-23T10:48:29;2.93;;;0.97;;
14613;SDS011;7393;51.446;6.800;2024-03-23T10:50:55;2.80;;;0.93;;
14613;SDS011;7393;51.446;6.800;2024-03-23T10:53:24;3.27;;;0.60;;
14613;SDS011;7393;51.446;6.800;2024-03-23T10:55:52;2.90;;;0.90;;
14613;SDS011;7393;51.446;6.800;2024-03-23T10:58:19;4.23;;;0.83;;
14613;SDS011;7393;51.446;6.800;2024-03-23T11:00:50;1.57;;;0.77;;
14613;SDS011;7393;51.446;6.800;2024-03-23T11:03:31;2.33;;;0.90;;
14613;SDS011;7393;51.446;6.800;2024-03-23T11:06:02;1.93;;;1.10;;
14613;SDS011;7393;51.446;6.800;2024-03-23T11:08:34;2.03;;;1.17;;
14613;SDS011;7393;51.446;6.800;2024-03-23T11:11:11;3.40;;;1.40;;
14613;SDS011;7393;51.446;6.800;2024-03-23T11:13:42;2.50;;;1.07;;
14613;SDS011;7393;51.446;6.800;2024-03-23T11:16:12;2.17;;;1.30;;
14613;SDS011;7393;51.446;6.800;2024-03-23T11:18:39;4.10;;;1.43;;
14613;SDS011;7393;51.446;6.800;2024-03-23T11:21:07;7.43;;;1.97;;
14613;SDS011;7393;51.446;6.800;2024-03-23T11:23:34;4.20;;;1.63;;
14613;SDS011;7393;51.446;6.800;2024-03-23T11:26:01;7.50;;;2.30;;
14613;SDS011;7393;51.446;6.800;2024-03-23T11:28:27;5.47;;;1.83;;
14613;SDS011;7393;51.446;6.800;2024-03-23T11:30:54;3.50;;;1.70;;
14613;SDS011;7393;51.446;6.800;2024-03-23T11:33:20;6.00;;;2.23;;
14613;SDS011;7393;51.446;6.800;2024-03-23T11:35:47;5.53;;;2.30;;
14613;SDS011;7393;51.446;6.800;2024-03-23T11:38:13;7.97;;;2.10;;
14613;SDS011;7393;51.446;6.800;2024-03-23T11:40:44;4.53;;;1.97;;
14613;SDS011;7393;51.446;6.800;2024-03-23T11:43:12;5.00;;;1.90;;
14613;SDS011;7393;51.446;6.800;2024-03-23T11:45:40;5.40;;;2.30;;
14613;SDS011;7393;51.446;6.800;2024-03-23T11:48:08;3.70;;;2.00;;
14613;SDS011;7393;51.446;6.800;2024-03-23T11:50:36;5.40;;;1.50;;
14613;SDS011;7393;51.446;6.800;2024-03-23T11:53:06;4.50;;;1.80;;
14613;SDS011;7393;51.446;6.800;2024-03-23T11:55:39;4.07;;;1.53;;
14613;SDS011;7393;51.446;6.800;2024-03-23T11:58:13;4.60;;;1.40;;
14613;SDS011;7393;51.446;6.800;2024-03-23T12:00:41;3.50;;;1.27;;
14613;SDS011;7393;51.446;6.800;2024-03-23T12:03:07;6.97;;;1.60;;
14613;SDS011;7393;51.446;6.800;2024-03-23T12:05:35;5.30;;;1.10;;
14613;SDS011;7393;51.446;6.800;2024-03-23T12:08:17;8.07;;;1.90;;
14613;SDS011;7393;51.446;6.800;2024-03-23T12:10:47;6.37;;;2.27;;
14613;SDS011;7393;51.446;6.800;2024-03-23T12:13:15;7.03;;;1.97;;
14613;SDS011;7393;51.446;6.800;2024-03-23T12:15:46;4.53;;;1.60;;
14613;SDS011;7393;51.446;6.800;2024-03-23T12:18:13;4.40;;;1.60;;
14613;SDS011;7393;51.446;6.800;2024-03-23T12:20:40;5.90;;;1.70;;
14613;SDS011;7393;51.446;6.800;2024-03-23T12:23:06;6.57;;;1.77;;
14613;SDS011;7393;51.446;6.800;2024-03-23T12:25:37;4.97;;;1.70;;
14613;SDS011;7393;51.446;6.800;2024-03-23T12:28:05;4.87;;;1.90;;
14613;SDS011;7393;51.446;6.800;2024-03-23T12:30:33;4.17;;;1.83;;
14613;SDS011;7393;51.446;6.800;2024-03-23T12:33:00;4.43;;;2.30;;
14613;SDS011;7393;51.446;6.800;2024-03-23T12:35:28;6.67;;;1.97;;
14613;SDS011;7393;51.446;6.800;2024-03-23T12:37:54;3.10;;;1.60;;
14613;SDS011;7393;51.446;6.800;2024-03-23T12:40:21;7.57;;;2.23;;
14613;SDS011;7393;51.446;6.800;2024-03-23T12:42:47;7.87;;;2.10;;
14613;SDS011;7393;51.446;6.800;2024-03-23T12:45:15;6.80;;;1.97;;
14613;SDS011;7393;51.446;6.800;2024-03-23T12:47:41;5.67;;;1.40;;
14613;SDS011;7393;51.446;6.800;2024-03-23T12:50:08;5.90;;;1.60;;
14613;SDS011;7393;51.446;6.800;2024-03-23T12:52:34;5.90;;;1.50;;
14613;SDS011;7393;51.446;6.800;2024-03-23T12:55:01;3.17;;;1.50;;
14613;SDS011;7393;51.446;6.800;2024-03-23T12:57:28;5.87;;;2.47;;
14613;SDS011;7393;51.446;6.800;2024-03-23T12:59:55;2.67;;;1.50;;
14613;SDS011;7393;51.446;6.800;2024-03-23T13:02:22;2.33;;;1.40;;
14613;SDS011;7393;51.446;6.800;2024-03-23T13:04:50;4.17;;;1.63;;
14613;SDS011;7393;51.446;6.800;2024-03-23T13:07:16;4.47;;;1.80;;
14613;SDS011;7393;51.446;6.800;2024-03-23T13:09:43;1.77;;;1.23;;
14613;SDS011;7393;51.446;6.800;2024-03-23T13:12:09;3.50;;;1.10;;
14613;SDS011;7393;51.446;6.800;2024-03-23T13:14:37;3.57;;;1.33;;
14613;SDS011;7393;51.446;6.800;2024-03-23T13:17:03;3.63;;;1.23;;
14613;SDS011;7393;51.446;6.800;2024-03-23T13:19:31;3.23;;;1.47;;
14613;SDS011;7393;51.446;6.800;2024-03-23T13:21:58;3.33;;;1.30;;
14613;SDS011;7393;51.446;6.800;2024-03-23T13:24:25;6.70;;;2.00;;
14613;SDS011;7393;51.446;6.800;2024-03-23T13:26:51;8.07;;;2.30;;
14613;SDS011;7393;51.446;6.800;2024-03-23T13:29:18;4.40;;;1.80;;
14613;SDS011;7393;51.446;6.800;2024-03-23T13:31:44;3.53;;;1.80;;
14613;SDS011;7393;51.446;6.800;2024-03-23T13:34:11;6.67;;;1.53;;
14613;SDS011;7393;51.446;6.800;2024-03-23T13:36:41;3.20;;;1.10;;
14613;SDS011;7393;51.446;6.800;2024-03-23T13:39:08;5.60;;;1.53;;
14613;SDS011;7393;51.446;6.800;2024-03-23T13:41:36;4.67;;;1.07;;
14613;SDS011;7393;51.446;6.800;2024-03-23T13:44:04;2.80;;;1.00;;
14613;SDS011;7393;51.446;6.800;2024-03-23T13:46:30;3.13;;;1.10;;
14613;SDS011;7393;51.446;6.800;2024-03-23T13:48:56;2.57;;;0.80;;
14613;SDS011;7393;51.446;6.800;2024-03-23T13:51:23;2.70;;;0.70;;
14613;SDS011;7393;51.446;6.800;2024-03-23T13:53:53;2.97;;;0.83;;
14613;SDS011;7393;51.446;6.800;2024-03-23T13:56:19;3.00;;;0.80;;
14613;SDS011;7393;51.446;6.800;2024-03-23T13:58:46;1.43;;;0.50;;
14613;SDS011;7393;51.446;6.800;2024-03-23T14:01:15;2.87;;;0.83;;
14613;SDS011;7393;51.446;6.800;2024-03-23T14:03:42;1.90;;;0.60;;
14613;SDS011;7393;51.446;6.800;2024-03-23T14:06:08;2.03;;;0.90;;
14613;SDS011;7393;51.446;6.800;2024-03-23T14:08:36;2.53;;;1.03;;
14613;SDS011;7393;51.446;6.800;2024-03-23T14:11:05;1.87;;;0.80;;
14613;SDS011;7393;51.446;6.800;2024-03-23T14:13:32;4.43;;;1.10;;
14613;SDS011;7393;51.446;6.800;2024-03-23T14:15:58;4.13;;;1.00;;
14613;SDS011;7393;51.446;6.800;2024-03-23T14:18:26;4.03;;;1.13;;
14613;SDS011;7393;51.446;6.800;2024-03-23T14:20:55;3.47;;;1.00;;
14613;SDS011;7393;51.446;6.800;2024-03-23T14:23:25;4.20;;;1.20;;
14613;SDS011;7393;51.446;6.800;2024-03-23T14:25:55;3.20;;;1.00;;
14613;SDS011;7393;51.446;6.800;2024-03-23T14:28:22;2.77;;;1.00;;
14613;SDS011;7393;51.446;6.800;2024-03-23T14:30:49;1.77;;;0.80;;
14613;SDS011;7393;51.446;6.800;2024-03-23T14:33:15;2.37;;;1.00;;
14613;SDS011;7393;51.446;6.800;2024-03-23T14:35:43;3.10;;;1.10;;
14613;SDS011;7393;51.446;6.800;2024-03-23T14:38:09;2.80;;;1.03;;
14613;SDS011;7393;51.446;6.800;2024-03-23T14:40:35;6.33;;;1.20;;
14613;SDS011;7393;51.446;6.800;2024-03-23T14:43:01;4.37;;;1.30;;
14613;SDS011;7393;51.446;6.800;2024-03-23T14:45:30;6.57;;;1.20;;
14613;SDS011;7393;51.446;6.800;2024-03-23T14:47:55;3.13;;;1.00;;
14613;SDS011;7393;51.446;6.800;2024-03-23T14:50:23;4.03;;;0.90;;
14613;SDS011;7393;51.446;6.800;2024-03-23T14:52:49;3.60;;;0.93;;
14613;SDS011;7393;51.446;6.800;2024-03-23T14:55:17;4.03;;;1.00;;
14613;SDS011;7393;51.446;6.800;2024-03-23T14:57:43;5.23;;;0.90;;
14613;SDS011;7393;51.446;6.800;2024-03-23T15:00:10;3.43;;;0.97;;
14613;SDS011;7393;51.446;6.800;2024-03-23T15:02:38;4.27;;;1.10;;
14613;SDS011;7393;51.446;6.800;2024-03-23T15:05:06;2.80;;;0.80;;
14613;SDS011;7393;51.446;6.800;2024-03-23T15:07:48;3.27;;;1.17;;
14613;SDS011;7393;51.446;6.800;2024-03-23T15:10:15;2.30;;;1.20;;
14613;SDS011;7393;51.446;6.800;2024-03-23T15:12:41;2.43;;;1.03;;
14613;SDS011;7393;51.446;6.800;2024-03-23T15:15:08;4.00;;;1.20;;
14613;SDS011;7393;51.446;6.800;2024-03-23T15:17:34;4.73;;;1.20;;
14613;SDS011;7393;51.446;6.800;2024-03-23T15:20:07;2.63;;;1.00;;
14613;SDS011;7393;51.446;6.800;2024-03-23T15:22:36;2.80;;;1.00;;
14613;SDS011;7393;51.446;6.800;2024-03-23T15:25:03;4.47;;;1.33;;
14613;SDS011;7393;51.446;6.800;2024-03-23T15:27:29;5.30;;;1.33;;
14613;SDS011;7393;51.446;6.800;2024-03-23T15:29:56;3.83;;;1.20;;
14613;SDS011;7393;51.446;6.800;2024-03-23T15:32:23;4.23;;;1.20;;
14613;SDS011;7393;51.446;6.800;2024-03-23T15:34:50;4.17;;;1.30;;
14613;SDS011;7393;51.446;6.800;2024-03-23T15:37:18;4.87;;;1.40;;
14613;SDS011;7393;51.446;6.800;2024-03-23T15:39:45;3.13;;;1.30;;
14613;SDS011;7393;51.446;6.800;2024-03-23T15:42:10;2.73;;;1.10;;
14613;SDS011;7393;51.446;6.800;2024-03-23T15:44:37;3.17;;;1.47;;
14613;SDS011;7393;51.446;6.800;2024-03-23T15:47:03;2.67;;;1.07;;
14613;SDS011;7393;51.446;6.800;2024-03-23T15:49:30;3.70;;;1.07;;
14613;SDS011;7393;51.446;6.800;2024-03-23T15:51:56;3.93;;;1.30;;